X Fechar
foto

X Fechar
foto
Clique e saiba mais
Clique e saiba mais
Clique e saiba mais
Clique e saiba mais
Clique e saiba mais
Clique e saiba mais

Edgers Racing

KTM Sacramento

Toro Sports

SP Race Park

JPS Racing

MotoX Pneus

Arenafama

Clique e saiba mais

> Notícias > Últimas Notícias

Mundial de Motocross 2019 - Resultados e Vídeos das Classificatórias na Turquia
Publicado em: 07/09/2019

Glenn Coldenhoff e Jorge Prado vencem as classificatórias de sábado. 
Redação MotoX.com.br: Lucidio Arruda - Fotos: Bavo Swijgers / Youthstream / Pascal Haudiquert

Roan Van De Moosdijk surpreende em sua estreia na MX2


Largada MXGP

O circuito de Afyonkarahisar, ou simplesmente Afyon, para os íntimos, recebe a penúltima etapa do Mundial de Motocross 2019. Após a parada turca o circo do MXGP já pega a reta pa China, onde acontece a grande final na semana que vem. Com campeões definidos e já um pouco em clima de fim de festa, o GP conta com número reduzido de pilotos regulares do campeonato. Além do grande número de atletas de molho, muitos dos times menores evitaram a longa viagem, já economizando uns trocados para o ano que vem. 

Na largada o tricampeão Tim Gajser assumiu a ponta e liderou por cinco das onze voltas da bateria classificatória. No sexto giro o esloveno sofreu uma forte queda e completou a prova, com dores, na 13ª colocação.

"Foi bastante dolorido por três voltas, então tentei não me movimentar muito, mas não queria sair, pois teria a última vaga no gate. Continuei rodando esperando a dor diminuir e nas  duas últimas voltas me soltei mais e pude completar em 13º, o que é muito melhor que em 27º. Fico um pouco desapontado porque sei que tinha velocidade para vencer, mas amanhã é o dia que conta e, depois de receber uma massagem já me sinto muito melhor, então devo me sentir bem amanhã", comentou Gajser.


Glenn Coldenhoff

As últimas voltas foram preenchidas por uma batalha holandesa. Glenn Coldenhoff, confirmando a ótima fase nesta reta final do campeonato, segurou o conterrâneo Jeffrey Herlings no técnico circuito turco. Após um leve contato na última volta, Coldehoff cruzou a bandeira com menos de um segundo de vantagem.

Glenn Coldenhoff: “Comecei bem, um pouco atrás do Tim, continuei concentrado e reparei que em alguns lugares eu era mais rápido. Então ele caiu e Herlings estava me pressionou até o final. Foi divertido disputar com ele e eu venci, o que é sempre bom."


Jeremy Seewer

Em terceiro chegou o suíço Jeremy Seewer, que tem chances de garantir o vice-campeonato amanhã. Ele trem 43 pontos de vantagem sobre Gautier Paulin e precisa marcar oito pontos a mais que o francês - quinto na classificatória - para definir sua posição.

MX2 - Prado vence, Van De Moosdijk brilha na estreia


Roan van den Moosdjik

Sem surpresas com o primeiro posto na categoria MX2, já que o espanhol Jorge Prado continuou exibindo seu domínio com vitória de ponta a ponta.

No entanto os holandeses tem mais um motivo para ficarem animados com o Motocross das Nações. O jovem Roan van de Moosdijk, gravem este nome, estreou no mundial MX2 com a segunda posição. Ok, foi apenas uma classificatória, que não conta pontos para o campeonato, mas para uma primeira largada entre as feras do Mundial, não poderia deixar uma melhor primeira impressão.

falamos dele aqui, Moosdijk acaba de se sagrar campeão no Europeu EMX250 e disputa com Calvin Vlaanderen a vaga da seleção holandesa na classe MX2 no Motocross das Nações. A seu favor conta o fato de ser holandês nativo, enquanto Vlaanderen é sul-africano com dupla cidadania. Caso consiga resultados melhores nas provas deste domingo e na China, vai facilitar, e muito, escolha da Federação Holandesa.


Gustavo Pessoa

Já o brasileiro Gustavo pessoa não passou da primeira curva na bateria de hoje. Foi atingido por uma queda coletiva na largada e abandonou.

Vídeos








Resultados

P. # MXGP Nat. Moto Tempo V Dif. Gap. M.V. Speed
1 259 Coldenhoff,Glenn NED KTM 23:41.215 11 0:00.000 0:00.000 1:48.426 57.2
2 84 Herlings,Jeffrey NED KTM 23:42.112 11 0:00.897 0:00.897 1:47.733 57.6
3 91 Seewer, Jeremy SUI Yam 23:51.700 11 0:10.485 0:09.588 1:48.944 57
4 128 Monticelli, Ivo ITA KTM 24:04.108 11 0:22.893 0:12.408 1:50.411 56.2
5 21 Paulin, Gautier FRA Yam 24:05.676 11 0:24.461 0:01.568 1:49.625 56.6
6 89 Van Horebeek,Jeremy BEL Hon 24:08.518 11 0:27.303 0:02.842 1:50.025 56.4
7 77 Lupino,Alessandro ITA Kaw 24:12.150 11 0:30.935 0:03.632 1:49.787 56.5
8 22 Strijbos, Kevin BEL Yam 24:14.684 11 0:33.469 0:02.534 1:50.086 56.4
9 41 Jonass, Pauls LAT Hus 24:17.170 11 0:35.955 0:02.486 1:49.888 56.5
10 27 Jasikonis,Arminas LTU Hus 24:18.206 11 0:36.991 0:01.036 1:50.537 56.1
11 100 Searle, Tommy GBR Kaw 24:30.002 11 0:48.787 0:11.796 1:51.402 55.7
12 189 Bogers, Brian NED Hon 24:30.552 11 0:49.337 0:00.550 1:51.383 55.7
13 243 Gajser, Tim SLO Hon 24:34.831 11 0:53.616 0:04.279 1:48.957 56.9
14 127 Rodriguez,Anthony VEN Yam 24:35.966 11 0:54.751 0:01.135 1:51.549 55.6
15 34 De Waal,Micha-Boy NED Yam 24:40.681 11 0:59.466 0:04.715 1:51.809 55.5
16 4 Tonus, Arnaud SUI Yam 24:49.861 11 1:08.646 0:09.180 1:52.841 55
17 152 Petrov, Petar BUL KTM 24:51.015 11 1:09.800 0:01.154 1:52.969 54.9
18 7 Leok, Tanel EST Hus 24:51.413 11 1:10.198 0:00.398 1:52.493 55.2
19 911 Tixier, Jordi FRA KTM 24:56.359 11 1:15.144 0:04.946 1:51.362 55.7
20 83 Renkens, Nathan BEL KTM 25:34.884 11 1:53.669 0:38.525 1:56.481 53.3
21 555 Guryev, Artem RUS Hus 23:47.978 10 1 lap 1 lap 1:55.691 53.6
22 306 Kouzis,Panagiotis GRE Hon 24:28.950 10 1 lap 0:40.972 1:58.507 52.4
23 114 Dorseuil, Pascal FRA KTM 25:38.125 10 1 lap 1:09.175 2:03.098 50.4
24 54 Senkalayci,Sakir TUR KTM 24:27.199 8 3 laps 2 laps 2:17.878 45
25 185 Celik, Mehmet TUR KTM 25:02.082 8 3 laps 0:34.883 2:22.485 43.5
26 261 Basterzi, Murat TUR KTM 24:16.281 3 8 laps 5 laps 2:47.862 36.9
27 24 Simpson, Shaun GBR KTM 9:02.755 1 10 laps 2 laps 2:31.914 40.8

P. # MX2 Nat. Moto Tempo V Dif. Gap. M.V. Speed
1 61 Prado, Jorge ESP KTM 23:58.615 12 0:00.000 0:00.000 1:49.211 56.8
2 39 Van DeMoosdijk, Roan NED Kaw 24:14.428 12 0:15.813 0:15.813 1:49.726 56.5
3 959 Renaux, Maxime FRA Yam 24:19.215 12 0:20.600 0:04.787 1:51.315 55.7
4 193 Geerts, Jago BEL Yam 24:23.039 12 0:24.424 0:03.824 1:51.530 55.6
5 28 Vialle, Tom FRA KTM 24:38.037 12 0:39.422 0:14.998 1:50.806 56
6 10 Vlaanderen,Calvin NED Hon 24:38.541 12 0:39.926 0:00.504 1:50.923 55.9
7 811 Sterry, Adam GBR Kaw 24:40.315 12 0:41.700 0:01.774 1:51.794 55.5
8 172 Boisrame, Mathys FRA Hon 24:42.797 12 0:44.182 0:02.482 1:52.278 55.3
9 66 LarranagaOlano, Iker ESP KTM 24:47.306 12 0:48.691 0:04.509 1:52.150 55.3
10 225 StrubhartMoreau, Brian FRA Kaw 24:48.947 12 0:50.332 0:01.641 1:52.396 55.2
11 240 Horgmo, Kevin NOR KTM 24:59.719 12 1:01.104 0:10.772 1:53.860 54.5
12 101 Pichon, Zachary FRA Hon 25:02.299 12 1:03.684 0:02.580 1:52.594 55.1
13 102 Sikyna, Richard SVK KTM 25:05.225 12 1:06.610 0:02.926 1:54.214 54.3
14 43 Evans, Mitchell AUS Hon 25:10.130 12 1:11.515 0:04.905 1:54.046 54.4
15 161 Östlund, Alvin SWE Hus 25:14.588 12 1:15.973 0:04.458 1:53.682 54.6
16 303 Forato, Alberto ITA Hus 25:20.237 12 1:21.622 0:05.649 1:53.864 54.5
17 121 Guadagnini,Mattia ITA Hus 25:21.901 12 1:23.286 0:01.664 1:54.195 54.3
18 32 Van doninck,Brent BEL Hon 25:40.180 12 1:41.565 0:18.279 1:54.188 54.3
19 410 Dankers, Raivo NED Yam 25:42.880 12 1:44.265 0:02.700 1:56.965 53
20 332 Conijn, Marcel NED Kaw 26:08.550 12 2:09.935 0:25.670 1:57.534 52.8
21 253 Pancar, Jan SLO Yam 25:03.767 11 1 lap 1 lap 1:58.024 52.6
22 112 Senkalayci,Emircan TUR KTM 24:57.057 6 6 laps 5 laps 2:24.791 42.8
23 313 Polak, Petr CZE KTM 13:30.611 5 7 laps 1 lap 1:56.296 53.3
24 58 Cetin, Mustafa TUR Yam 24:29.265 3 9 laps 2 laps 2:22.789 43.4
25 56 Pessoa, Gustavo BRA Kaw 4:34.213 0 12 laps 3 laps 0:00.000 0









Curso MotoX
JPS Racing

© 2000 - 2018 MotoX MX1 Internet